sensor_id;sensor_type;location;lat;lon;timestamp;pressure;altitude;pressure_sealevel;temperature;humidity
19831;BME280;10076;52.008;4.708;2023-03-21T00:00:13;101693.13;;;11.25;100.00
19831;BME280;10076;52.008;4.708;2023-03-21T00:02:39;101693.06;;;11.41;100.00
19831;BME280;10076;52.008;4.708;2023-03-21T00:05:05;101690.22;;;11.30;100.00
19831;BME280;10076;52.008;4.708;2023-03-21T00:07:30;101683.78;;;11.34;100.00
19831;BME280;10076;52.008;4.708;2023-03-21T00:09:56;101679.28;;;11.36;100.00
19831;BME280;10076;52.008;4.708;2023-03-21T00:12:21;101681.44;;;11.43;100.00
19831;BME280;10076;52.008;4.708;2023-03-21T00:14:46;101683.22;;;11.29;100.00
19831;BME280;10076;52.008;4.708;2023-03-21T00:17:11;101678.34;;;11.37;100.00
19831;BME280;10076;52.008;4.708;2023-03-21T00:19:37;101677.66;;;11.33;100.00
19831;BME280;10076;52.008;4.708;2023-03-21T00:22:03;101676.13;;;11.29;100.00
19831;BME280;10076;52.008;4.708;2023-03-21T00:24:29;101672.09;;;11.38;100.00
19831;BME280;10076;52.008;4.708;2023-03-21T00:26:54;101668.88;;;11.47;100.00
19831;BME280;10076;52.008;4.708;2023-03-21T00:29:20;101674.41;;;11.58;100.00
19831;BME280;10076;52.008;4.708;2023-03-21T00:31:45;101666.16;;;11.48;100.00
19831;BME280;10076;52.008;4.708;2023-03-21T00:34:11;101669.81;;;11.46;100.00
19831;BME280;10076;52.008;4.708;2023-03-21T00:36:36;101663.19;;;11.39;100.00
19831;BME280;10076;52.008;4.708;2023-03-21T00:39:02;101668.84;;;11.33;100.00
19831;BME280;10076;52.008;4.708;2023-03-21T00:41:28;101665.94;;;11.37;100.00
19831;BME280;10076;52.008;4.708;2023-03-21T00:43:54;101654.69;;;11.34;100.00
19831;BME280;10076;52.008;4.708;2023-03-21T00:46:20;101664.81;;;11.27;100.00
19831;BME280;10076;52.008;4.708;2023-03-21T00:48:45;101650.34;;;11.19;100.00
19831;BME280;10076;52.008;4.708;2023-03-21T00:51:13;101662.28;;;11.26;100.00
19831;BME280;10076;52.008;4.708;2023-03-21T00:53:41;101654.22;;;11.27;100.00
19831;BME280;10076;52.008;4.708;2023-03-21T00:56:07;101656.25;;;11.38;100.00
19831;BME280;10076;52.008;4.708;2023-03-21T00:58:32;101655.38;;;11.37;100.00
19831;BME280;10076;52.008;4.708;2023-03-21T01:00:58;101643.81;;;11.24;100.00
19831;BME280;10076;52.008;4.708;2023-03-21T01:03:26;101640.34;;;11.24;100.00
19831;BME280;10076;52.008;4.708;2023-03-21T01:05:53;101636.19;;;11.20;100.00
19831;BME280;10076;52.008;4.708;2023-03-21T01:08:39;101639.00;;;11.17;100.00
19831;BME280;10076;52.008;4.708;2023-03-21T01:11:08;101633.34;;;11.23;100.00
19831;BME280;10076;52.008;4.708;2023-03-21T01:13:35;101632.03;;;11.16;100.00
19831;BME280;10076;52.008;4.708;2023-03-21T01:16:01;101628.47;;;11.31;100.00
19831;BME280;10076;52.008;4.708;2023-03-21T01:18:29;101618.25;;;11.25;100.00
19831;BME280;10076;52.008;4.708;2023-03-21T01:20:56;101617.59;;;11.21;100.00
19831;BME280;10076;52.008;4.708;2023-03-21T01:23:23;101617.88;;;11.17;100.00
19831;BME280;10076;52.008;4.708;2023-03-21T01:25:51;101627.31;;;11.21;100.00
19831;BME280;10076;52.008;4.708;2023-03-21T01:28:17;101622.13;;;11.33;100.00
19831;BME280;10076;52.008;4.708;2023-03-21T01:30:48;101611.66;;;11.46;100.00
19831;BME280;10076;52.008;4.708;2023-03-21T01:33:14;101606.81;;;11.24;100.00
19831;BME280;10076;52.008;4.708;2023-03-21T01:35:39;101606.38;;;11.32;100.00
19831;BME280;10076;52.008;4.708;2023-03-21T01:38:05;101599.75;;;11.25;100.00
19831;BME280;10076;52.008;4.708;2023-03-21T01:40:30;101605.59;;;11.30;100.00
19831;BME280;10076;52.008;4.708;2023-03-21T01:42:55;101597.88;;;11.41;100.00
19831;BME280;10076;52.008;4.708;2023-03-21T01:48:26;101595.81;;;11.32;100.00
19831;BME280;10076;52.008;4.708;2023-03-21T01:50:52;101597.84;;;11.27;100.00
19831;BME280;10076;52.008;4.708;2023-03-21T01:53:19;101598.34;;;11.33;100.00
19831;BME280;10076;52.008;4.708;2023-03-21T01:55:46;101592.94;;;11.35;100.00
19831;BME280;10076;52.008;4.708;2023-03-21T01:58:13;101592.00;;;11.36;100.00
19831;BME280;10076;52.008;4.708;2023-03-21T02:00:43;101591.16;;;11.35;100.00
19831;BME280;10076;52.008;4.708;2023-03-21T02:03:09;101590.50;;;11.46;100.00
19831;BME280;10076;52.008;4.708;2023-03-21T02:05:50;101588.50;;;11.35;100.00
19831;BME280;10076;52.008;4.708;2023-03-21T02:08:16;101580.66;;;11.34;100.00
19831;BME280;10076;52.008;4.708;2023-03-21T02:10:44;101579.91;;;11.46;100.00
19831;BME280;10076;52.008;4.708;2023-03-21T02:13:10;101576.91;;;11.38;100.00
19831;BME280;10076;52.008;4.708;2023-03-21T02:15:37;101578.03;;;11.34;100.00
19831;BME280;10076;52.008;4.708;2023-03-21T02:18:13;101573.28;;;11.39;100.00
19831;BME280;10076;52.008;4.708;2023-03-21T02:20:53;101574.34;;;11.36;100.00
19831;BME280;10076;52.008;4.708;2023-03-21T02:29:02;101559.34;;;11.09;100.00
19831;BME280;10076;52.008;4.708;2023-03-21T02:40:00;101551.88;;;11.15;100.00
19831;BME280;10076;52.008;4.708;2023-03-21T02:45:12;101545.63;;;11.02;100.00
19831;BME280;10076;52.008;4.708;2023-03-21T02:50:18;101543.19;;;11.00;100.00
19831;BME280;10076;52.008;4.708;2023-03-21T02:52:47;101537.63;;;11.04;100.00
19831;BME280;10076;52.008;4.708;2023-03-21T02:55:17;101534.41;;;11.13;100.00
19831;BME280;10076;52.008;4.708;2023-03-21T02:57:45;101540.53;;;11.13;100.00
19831;BME280;10076;52.008;4.708;2023-03-21T03:00:16;101539.22;;;11.06;100.00
19831;BME280;10076;52.008;4.708;2023-03-21T03:02:43;101535.25;;;11.13;100.00
19831;BME280;10076;52.008;4.708;2023-03-21T03:05:33;101536.84;;;11.16;100.00
19831;BME280;10076;52.008;4.708;2023-03-21T03:08:53;101532.16;;;11.07;100.00
19831;BME280;10076;52.008;4.708;2023-03-21T03:11:45;101529.78;;;11.02;100.00
19831;BME280;10076;52.008;4.708;2023-03-21T03:17:46;101537.72;;;11.16;100.00
19831;BME280;10076;52.008;4.708;2023-03-21T03:22:58;101525.34;;;11.31;100.00
19831;BME280;10076;52.008;4.708;2023-03-21T03:25:30;101532.13;;;11.35;100.00
19831;BME280;10076;52.008;4.708;2023-03-21T03:27:59;101520.72;;;11.20;100.00
19831;BME280;10076;52.008;4.708;2023-03-21T03:30:26;101522.16;;;11.26;100.00
19831;BME280;10076;52.008;4.708;2023-03-21T03:32:56;101522.53;;;11.20;100.00
19831;BME280;10076;52.008;4.708;2023-03-21T03:35:24;101519.31;;;11.29;100.00
19831;BME280;10076;52.008;4.708;2023-03-21T03:37:54;101521.06;;;11.42;100.00
19831;BME280;10076;52.008;4.708;2023-03-21T03:40:30;101519.84;;;11.48;100.00
19831;BME280;10076;52.008;4.708;2023-03-21T03:43:04;101513.72;;;11.33;100.00
19831;BME280;10076;52.008;4.708;2023-03-21T03:45:36;101519.69;;;11.23;100.00
19831;BME280;10076;52.008;4.708;2023-03-21T03:48:14;101512.13;;;11.31;100.00
19831;BME280;10076;52.008;4.708;2023-03-21T03:50:53;101504.81;;;11.48;100.00
19831;BME280;10076;52.008;4.708;2023-03-21T03:55:58;101508.34;;;11.49;100.00
19831;BME280;10076;52.008;4.708;2023-03-21T03:58:24;101510.72;;;11.39;100.00
19831;BME280;10076;52.008;4.708;2023-03-21T04:00:51;101503.06;;;11.35;100.00
19831;BME280;10076;52.008;4.708;2023-03-21T04:03:16;101490.78;;;11.34;100.00
19831;BME280;10076;52.008;4.708;2023-03-21T04:05:42;101503.44;;;11.29;100.00
19831;BME280;10076;52.008;4.708;2023-03-21T04:08:11;101491.75;;;11.19;100.00
19831;BME280;10076;52.008;4.708;2023-03-21T04:10:36;101485.13;;;11.12;100.00
19831;BME280;10076;52.008;4.708;2023-03-21T04:13:01;101492.88;;;11.15;100.00
19831;BME280;10076;52.008;4.708;2023-03-21T04:15:27;101489.84;;;11.21;100.00
19831;BME280;10076;52.008;4.708;2023-03-21T04:17:52;101496.81;;;11.36;100.00
19831;BME280;10076;52.008;4.708;2023-03-21T04:20:18;101479.81;;;11.40;100.00
19831;BME280;10076;52.008;4.708;2023-03-21T04:22:43;101483.16;;;11.15;100.00
19831;BME280;10076;52.008;4.708;2023-03-21T04:25:09;101479.09;;;11.10;100.00
19831;BME280;10076;52.008;4.708;2023-03-21T04:27:35;101480.63;;;11.14;100.00
19831;BME280;10076;52.008;4.708;2023-03-21T04:30:03;101482.84;;;11.34;100.00
19831;BME280;10076;52.008;4.708;2023-03-21T04:32:30;101481.72;;;11.38;100.00
19831;BME280;10076;52.008;4.708;2023-03-21T04:35:07;101481.63;;;11.25;100.00
19831;BME280;10076;52.008;4.708;2023-03-21T04:37:34;101474.53;;;11.40;100.00
19831;BME280;10076;52.008;4.708;2023-03-21T04:40:01;101473.22;;;11.33;100.00
19831;BME280;10076;52.008;4.708;2023-03-21T04:42:31;101483.59;;;11.36;100.00
19831;BME280;10076;52.008;4.708;2023-03-21T04:44:56;101470.22;;;11.25;100.00
19831;BME280;10076;52.008;4.708;2023-03-21T04:47:22;101469.50;;;11.49;100.00
19831;BME280;10076;52.008;4.708;2023-03-21T04:49:48;101469.22;;;11.40;100.00
19831;BME280;10076;52.008;4.708;2023-03-21T04:52:14;101467.13;;;11.45;100.00
19831;BME280;10076;52.008;4.708;2023-03-21T04:54:39;101455.28;;;11.38;100.00
19831;BME280;10076;52.008;4.708;2023-03-21T04:57:05;101465.00;;;11.37;100.00
19831;BME280;10076;52.008;4.708;2023-03-21T04:59:30;101458.09;;;11.49;100.00
19831;BME280;10076;52.008;4.708;2023-03-21T05:01:56;101460.34;;;11.41;100.00
19831;BME280;10076;52.008;4.708;2023-03-21T05:04:23;101455.06;;;11.41;100.00
19831;BME280;10076;52.008;4.708;2023-03-21T05:06:49;101448.09;;;11.54;100.00
19831;BME280;10076;52.008;4.708;2023-03-21T05:09:14;101448.44;;;11.48;100.00
19831;BME280;10076;52.008;4.708;2023-03-21T05:11:40;101449.72;;;11.69;100.00
19831;BME280;10076;52.008;4.708;2023-03-21T05:14:07;101450.53;;;11.43;100.00
19831;BME280;10076;52.008;4.708;2023-03-21T05:16:33;101447.97;;;11.55;100.00
19831;BME280;10076;52.008;4.708;2023-03-21T05:19:01;101447.59;;;11.61;100.00
19831;BME280;10076;52.008;4.708;2023-03-21T05:21:31;101443.44;;;11.43;100.00
19831;BME280;10076;52.008;4.708;2023-03-21T05:24:10;101444.72;;;11.38;100.00
19831;BME280;10076;52.008;4.708;2023-03-21T05:26:38;101446.75;;;11.47;100.00
19831;BME280;10076;52.008;4.708;2023-03-21T05:29:04;101444.72;;;11.38;100.00
19831;BME280;10076;52.008;4.708;2023-03-21T05:31:29;101443.44;;;11.43;100.00
19831;BME280;10076;52.008;4.708;2023-03-21T05:33:55;101444.28;;;11.58;100.00
19831;BME280;10076;52.008;4.708;2023-03-21T05:36:20;101442.13;;;11.36;100.00
19831;BME280;10076;52.008;4.708;2023-03-21T05:38:45;101444.84;;;11.49;100.00
19831;BME280;10076;52.008;4.708;2023-03-21T05:41:15;101449.06;;;11.25;100.00
19831;BME280;10076;52.008;4.708;2023-03-21T05:43:41;101446.19;;;11.42;100.00
19831;BME280;10076;52.008;4.708;2023-03-21T05:46:06;101445.81;;;11.34;100.00
19831;BME280;10076;52.008;4.708;2023-03-21T05:48:32;101444.88;;;11.35;100.00
19831;BME280;10076;52.008;4.708;2023-03-21T05:50:57;101448.94;;;11.40;100.00
19831;BME280;10076;52.008;4.708;2023-03-21T05:53:22;101440.34;;;11.51;100.00
19831;BME280;10076;52.008;4.708;2023-03-21T05:55:48;101445.16;;;11.30;100.00
19831;BME280;10076;52.008;4.708;2023-03-21T05:58:13;101441.09;;;11.39;100.00
19831;BME280;10076;52.008;4.708;2023-03-21T06:00:38;101446.31;;;11.40;100.00
19831;BME280;10076;52.008;4.708;2023-03-21T06:03:04;101446.22;;;11.28;100.00
19831;BME280;10076;52.008;4.708;2023-03-21T06:05:30;101451.13;;;11.34;100.00
19831;BME280;10076;52.008;4.708;2023-03-21T06:07:55;101446.75;;;11.33;100.00
19831;BME280;10076;52.008;4.708;2023-03-21T06:10:20;101451.72;;;11.25;100.00
19831;BME280;10076;52.008;4.708;2023-03-21T06:12:46;101451.31;;;11.31;100.00
19831;BME280;10076;52.008;4.708;2023-03-21T06:15:12;101448.84;;;11.28;100.00
19831;BME280;10076;52.008;4.708;2023-03-21T06:17:37;101453.38;;;11.40;100.00
19831;BME280;10076;52.008;4.708;2023-03-21T06:20:04;101442.44;;;11.32;100.00
19831;BME280;10076;52.008;4.708;2023-03-21T06:22:32;101443.44;;;11.43;100.00
19831;BME280;10076;52.008;4.708;2023-03-21T06:24:57;101450.00;;;11.64;100.00
19831;BME280;10076;52.008;4.708;2023-03-21T06:27:22;101452.50;;;11.53;100.00
19831;BME280;10076;52.008;4.708;2023-03-21T06:29:48;101455.91;;;11.41;100.00
19831;BME280;10076;52.008;4.708;2023-03-21T06:32:13;101461.13;;;11.43;100.00
19831;BME280;10076;52.008;4.708;2023-03-21T06:34:40;101461.59;;;11.35;100.00
19831;BME280;10076;52.008;4.708;2023-03-21T06:37:05;101451.88;;;11.36;100.00
19831;BME280;10076;52.008;4.708;2023-03-21T06:39:31;101453.03;;;11.32;100.00
19831;BME280;10076;52.008;4.708;2023-03-21T06:41:57;101455.06;;;11.41;100.00
19831;BME280;10076;52.008;4.708;2023-03-21T06:44:22;101453.09;;;11.30;100.00
19831;BME280;10076;52.008;4.708;2023-03-21T06:46:49;101453.22;;;11.29;100.00
19831;BME280;10076;52.008;4.708;2023-03-21T06:49:14;101461.59;;;11.35;100.00
19831;BME280;10076;52.008;4.708;2023-03-21T06:51:40;101459.31;;;11.29;100.00
19831;BME280;10076;52.008;4.708;2023-03-21T06:54:05;101462.47;;;11.22;100.00
19831;BME280;10076;52.008;4.708;2023-03-21T06:56:30;101459.00;;;11.21;100.00
19831;BME280;10076;52.008;4.708;2023-03-21T06:58:55;101449.22;;;11.36;100.00
19831;BME280;10076;52.008;4.708;2023-03-21T07:01:21;101447.25;;;11.25;100.00
19831;BME280;10076;52.008;4.708;2023-03-21T07:03:46;101439.16;;;11.28;100.00
19831;BME280;10076;52.008;4.708;2023-03-21T07:06:12;101440.66;;;11.32;100.00
19831;BME280;10076;52.008;4.708;2023-03-21T07:08:39;101430.84;;;11.20;100.00
19831;BME280;10076;52.008;4.708;2023-03-21T07:11:06;101428.66;;;11.27;100.00
19831;BME280;10076;52.008;4.708;2023-03-21T07:13:32;101429.91;;;11.21;100.00
19831;BME280;10076;52.008;4.708;2023-03-21T07:15:58;101426.88;;;11.27;100.00
19831;BME280;10076;52.008;4.708;2023-03-21T07:18:23;101427.31;;;11.34;100.00
19831;BME280;10076;52.008;4.708;2023-03-21T07:20:49;101422.25;;;11.31;100.00
19831;BME280;10076;52.008;4.708;2023-03-21T07:23:19;101413.31;;;11.46;100.00
19831;BME280;10076;52.008;4.708;2023-03-21T07:25:48;101417.00;;;11.43;100.00
19831;BME280;10076;52.008;4.708;2023-03-21T07:28:15;101417.09;;;11.42;100.00
19831;BME280;10076;52.008;4.708;2023-03-21T07:30:41;101420.03;;;11.51;100.00
19831;BME280;10076;52.008;4.708;2023-03-21T07:33:07;101426.34;;;11.49;100.00
19831;BME280;10076;52.008;4.708;2023-03-21T07:35:33;101429.56;;;11.54;100.00
19831;BME280;10076;52.008;4.708;2023-03-21T07:38:00;101425.25;;;11.65;100.00
19831;BME280;10076;52.008;4.708;2023-03-21T07:40:25;101410.81;;;11.71;100.00
19831;BME280;10076;52.008;4.708;2023-03-21T07:42:51;101409.09;;;11.70;100.00
19831;BME280;10076;52.008;4.708;2023-03-21T07:45:16;101420.09;;;11.50;100.00
19831;BME280;10076;52.008;4.708;2023-03-21T07:47:46;101422.38;;;11.56;100.00
19831;BME280;10076;52.008;4.708;2023-03-21T07:50:13;101409.78;;;11.59;100.00
19831;BME280;10076;52.008;4.708;2023-03-21T07:52:38;101419.69;;;11.70;100.00
19831;BME280;10076;52.008;4.708;2023-03-21T07:55:04;101408.69;;;11.75;100.00
19831;BME280;10076;52.008;4.708;2023-03-21T07:57:30;101411.97;;;11.79;100.00
19831;BME280;10076;52.008;4.708;2023-03-21T07:59:56;101417.09;;;11.94;100.00
19831;BME280;10076;52.008;4.708;2023-03-21T08:02:21;101409.75;;;11.85;100.00
19831;BME280;10076;52.008;4.708;2023-03-21T08:04:46;101404.47;;;11.85;100.00
19831;BME280;10076;52.008;4.708;2023-03-21T08:07:12;101400.41;;;12.06;100.00
19831;BME280;10076;52.008;4.708;2023-03-21T08:09:37;101403.38;;;12.14;100.00
19831;BME280;10076;52.008;4.708;2023-03-21T08:12:04;101403.16;;;12.17;100.00
19831;BME280;10076;52.008;4.708;2023-03-21T08:14:30;101390.41;;;11.97;100.00
19831;BME280;10076;52.008;4.708;2023-03-21T08:16:56;101396.47;;;11.99;100.00
19831;BME280;10076;52.008;4.708;2023-03-21T08:19:21;101401.59;;;12.15;100.00
19831;BME280;10076;52.008;4.708;2023-03-21T08:21:47;101386.13;;;12.21;100.00
19831;BME280;10076;52.008;4.708;2023-03-21T08:24:14;101383.66;;;12.43;100.00
19831;BME280;10076;52.008;4.708;2023-03-21T08:26:39;101375.97;;;12.40;100.00
19831;BME280;10076;52.008;4.708;2023-03-21T08:29:05;101377.75;;;12.39;100.00
19831;BME280;10076;52.008;4.708;2023-03-21T08:31:30;101380.69;;;12.60;100.00
19831;BME280;10076;52.008;4.708;2023-03-21T08:33:56;101371.38;;;12.79;100.00
19831;BME280;10076;52.008;4.708;2023-03-21T08:36:22;101366.19;;;12.90;100.00
19831;BME280;10076;52.008;4.708;2023-03-21T08:38:47;101362.22;;;12.96;100.00
19831;BME280;10076;52.008;4.708;2023-03-21T08:41:14;101358.56;;;13.09;100.00
19831;BME280;10076;52.008;4.708;2023-03-21T08:43:39;101356.53;;;13.12;100.00
19831;BME280;10076;52.008;4.708;2023-03-21T08:46:05;101346.75;;;13.25;100.00
19831;BME280;10076;52.008;4.708;2023-03-21T08:48:30;101345.16;;;13.46;100.00
19831;BME280;10076;52.008;4.708;2023-03-21T08:50:59;101342.94;;;13.40;100.00
19831;BME280;10076;52.008;4.708;2023-03-21T08:53:24;101348.09;;;13.54;100.00
19831;BME280;10076;52.008;4.708;2023-03-21T08:55:49;101346.19;;;13.56;100.00
19831;BME280;10076;52.008;4.708;2023-03-21T08:58:16;101336.09;;;13.72;100.00
19831;BME280;10076;52.008;4.708;2023-03-21T09:00:41;101344.94;;;13.49;100.00
19831;BME280;10076;52.008;4.708;2023-03-21T09:03:06;101340.41;;;13.62;100.00
19831;BME280;10076;52.008;4.708;2023-03-21T09:05:32;101327.66;;;13.78;100.00
19831;BME280;10076;52.008;4.708;2023-03-21T09:07:57;101327.31;;;13.82;100.00
19831;BME280;10076;52.008;4.708;2023-03-21T09:10:25;101321.44;;;13.90;100.00
19831;BME280;10076;52.008;4.708;2023-03-21T09:12:53;101324.59;;;14.06;100.00
19831;BME280;10076;52.008;4.708;2023-03-21T09:15:19;101320.97;;;14.07;100.00
19831;BME280;10076;52.008;4.708;2023-03-21T09:17:46;101312.44;;;14.14;100.00
19831;BME280;10076;52.008;4.708;2023-03-21T09:20:16;101315.84;;;14.27;100.00
19831;BME280;10076;52.008;4.708;2023-03-21T09:22:47;101305.81;;;14.31;100.00
19831;BME280;10076;52.008;4.708;2023-03-21T09:25:14;101314.63;;;14.53;100.00
19831;BME280;10076;52.008;4.708;2023-03-21T09:27:40;101310.63;;;14.69;100.00
19831;BME280;10076;52.008;4.708;2023-03-21T09:30:08;101307.47;;;14.75;100.00
19831;BME280;10076;52.008;4.708;2023-03-21T09:32:35;101309.03;;;14.89;100.00
19831;BME280;10076;52.008;4.708;2023-03-21T09:35:01;101307.13;;;14.80;100.00
19831;BME280;10076;52.008;4.708;2023-03-21T09:37:31;101299.28;;;14.56;100.00
19831;BME280;10076;52.008;4.708;2023-03-21T09:39:57;101305.91;;;14.73;100.00
19831;BME280;10076;52.008;4.708;2023-03-21T09:42:39;101311.84;;;14.65;100.00
19831;BME280;10076;52.008;4.708;2023-03-21T09:45:15;101302.88;;;14.88;100.00
19831;BME280;10076;52.008;4.708;2023-03-21T09:47:45;101300.16;;;15.10;100.00
19831;BME280;10076;52.008;4.708;2023-03-21T09:50:43;101303.81;;;14.98;100.00
19831;BME280;10076;52.008;4.708;2023-03-21T09:53:14;101321.25;;;14.69;100.00
19831;BME280;10076;52.008;4.708;2023-03-21T09:55:45;101307.88;;;14.49;100.00
19831;BME280;10076;52.008;4.708;2023-03-21T09:58:29;101316.94;;;14.36;100.00
19831;BME280;10076;52.008;4.708;2023-03-21T10:01:01;101301.72;;;14.27;100.00
19831;BME280;10076;52.008;4.708;2023-03-21T10:03:32;101305.84;;;13.96;100.00
19831;BME280;10076;52.008;4.708;2023-03-21T10:06:10;101304.44;;;14.03;100.00
19831;BME280;10076;52.008;4.708;2023-03-21T10:08:42;101300.03;;;14.26;100.00
19831;BME280;10076;52.008;4.708;2023-03-21T10:11:16;101307.13;;;14.36;100.00
19831;BME280;10076;52.008;4.708;2023-03-21T10:13:48;101292.06;;;14.26;100.00
19831;BME280;10076;52.008;4.708;2023-03-21T10:16:20;101292.41;;;14.43;100.00
19831;BME280;10076;52.008;4.708;2023-03-21T10:18:48;101300.72;;;14.39;100.00
19831;BME280;10076;52.008;4.708;2023-03-21T10:21:22;101300.25;;;14.66;100.00
19831;BME280;10076;52.008;4.708;2023-03-21T10:23:49;101296.16;;;14.51;100.00
19831;BME280;10076;52.008;4.708;2023-03-21T10:26:17;101296.16;;;14.51;100.00
19831;BME280;10076;52.008;4.708;2023-03-21T10:28:43;101314.63;;;14.53;100.00
19831;BME280;10076;52.008;4.708;2023-03-21T10:31:14;101303.63;;;14.57;100.00
19831;BME280;10076;52.008;4.708;2023-03-21T10:33:43;101314.03;;;14.50;100.00
19831;BME280;10076;52.008;4.708;2023-03-21T10:36:16;101315.38;;;14.33;100.00
19831;BME280;10076;52.008;4.708;2023-03-21T10:38:46;101312.78;;;14.10;100.00
19831;BME280;10076;52.008;4.708;2023-03-21T10:41:13;101318.78;;;13.90;100.00
19831;BME280;10076;52.008;4.708;2023-03-21T10:43:42;101315.72;;;13.83;100.00
19831;BME280;10076;52.008;4.708;2023-03-21T10:46:16;101312.09;;;13.74;100.00
19831;BME280;10076;52.008;4.708;2023-03-21T10:48:43;101311.16;;;13.85;100.00
19831;BME280;10076;52.008;4.708;2023-03-21T10:51:14;101308.63;;;13.95;100.00
19831;BME280;10076;52.008;4.708;2023-03-21T10:53:45;101302.38;;;13.96;100.00
19831;BME280;10076;52.008;4.708;2023-03-21T10:56:12;101302.56;;;14.16;100.00
19831;BME280;10076;52.008;4.708;2023-03-21T10:58:43;101299.50;;;14.10;100.00
19831;BME280;10076;52.008;4.708;2023-03-21T11:01:12;101298.94;;;14.28;100.00
19831;BME280;10076;52.008;4.708;2023-03-21T11:03:42;101294.94;;;14.23;100.00
19831;BME280;10076;52.008;4.708;2023-03-21T11:06:25;101269.22;;;14.45;100.00
19831;BME280;10076;52.008;4.708;2023-03-21T11:08:59;101273.94;;;14.42;100.00
19831;BME280;10076;52.008;4.708;2023-03-21T11:11:34;101266.09;;;14.40;100.00
19831;BME280;10076;52.008;4.708;2023-03-21T11:14:01;101272.09;;;14.53;100.00
19831;BME280;10076;52.008;4.708;2023-03-21T11:16:41;101267.03;;;14.50;100.00
19831;BME280;10076;52.008;4.708;2023-03-21T11:19:18;101271.97;;;14.65;100.00
19831;BME280;10076;52.008;4.708;2023-03-21T11:21:44;101279.34;;;14.73;100.00
19831;BME280;10076;52.008;4.708;2023-03-21T11:24:15;101286.44;;;14.83;100.00
19831;BME280;10076;52.008;4.708;2023-03-21T11:26:44;101292.75;;;14.71;100.00
19831;BME280;10076;52.008;4.708;2023-03-21T11:29:23;101282.72;;;14.75;100.00
19831;BME280;10076;52.008;4.708;2023-03-21T11:31:51;101289.97;;;14.62;100.00
19831;BME280;10076;52.008;4.708;2023-03-21T11:34:26;101283.63;;;14.32;100.00
19831;BME280;10076;52.008;4.708;2023-03-21T11:36:57;101283.91;;;14.05;100.00
19831;BME280;10076;52.008;4.708;2023-03-21T11:39:36;101275.25;;;14.25;100.00
19831;BME280;10076;52.008;4.708;2023-03-21T11:42:10;101284.19;;;14.13;100.00
19831;BME280;10076;52.008;4.708;2023-03-21T11:44:49;101286.56;;;14.05;100.00
19831;BME280;10076;52.008;4.708;2023-03-21T11:47:21;101289.72;;;13.99;100.00
19831;BME280;10076;52.008;4.708;2023-03-21T11:49:46;101287.94;;;14.22;100.00
19831;BME280;10076;52.008;4.708;2023-03-21T12:01:07;101263.69;;;15.64;100.00
19831;BME280;10076;52.008;4.708;2023-03-21T12:03:55;101258.03;;;15.26;100.00
19831;BME280;10076;52.008;4.708;2023-03-21T12:11:39;101253.97;;;15.22;100.00
19831;BME280;10076;52.008;4.708;2023-03-21T12:14:18;101254.13;;;15.61;100.00
19831;BME280;10076;52.008;4.708;2023-03-21T12:22:43;101228.56;;;18.37;100.00
19831;BME280;10076;52.008;4.708;2023-03-21T12:25:18;101235.13;;;18.42;100.00
19831;BME280;10076;52.008;4.708;2023-03-21T12:28:00;101229.50;;;18.45;100.00
19831;BME280;10076;52.008;4.708;2023-03-21T12:33:54;101222.97;;;16.90;100.00
19831;BME280;10076;52.008;4.708;2023-03-21T12:36:35;101219.59;;;16.30;100.00
19831;BME280;10076;52.008;4.708;2023-03-21T12:39:33;101230.72;;;16.05;100.00
19831;BME280;10076;52.008;4.708;2023-03-21T12:45:12;101216.59;;;15.44;100.00
19831;BME280;10076;52.008;4.708;2023-03-21T12:47:41;101212.72;;;15.27;100.00
19831;BME280;10076;52.008;4.708;2023-03-21T12:50:16;101215.38;;;15.48;100.00
19831;BME280;10076;52.008;4.708;2023-03-21T12:52:56;101207.72;;;15.54;100.00
19831;BME280;10076;52.008;4.708;2023-03-21T12:55:31;101203.03;;;15.26;100.00
19831;BME280;10076;52.008;4.708;2023-03-21T12:58:10;101205.59;;;15.17;100.00
19831;BME280;10076;52.008;4.708;2023-03-21T13:01:00;101207.44;;;15.06;100.00
19831;BME280;10076;52.008;4.708;2023-03-21T13:03:32;101217.75;;;14.99;100.00
19831;BME280;10076;52.008;4.708;2023-03-21T13:06:02;101202.97;;;15.06;100.00
19831;BME280;10076;52.008;4.708;2023-03-21T13:08:37;101202.06;;;15.27;100.00
19831;BME280;10076;52.008;4.708;2023-03-21T13:11:05;101200.31;;;15.06;100.00
19831;BME280;10076;52.008;4.708;2023-03-21T13:13:47;101201.94;;;15.18;100.00
19831;BME280;10076;52.008;4.708;2023-03-21T13:16:47;101204.00;;;15.25;100.00
19831;BME280;10076;52.008;4.708;2023-03-21T13:19:37;101191.97;;;15.31;100.00
19831;BME280;10076;52.008;4.708;2023-03-21T13:22:27;101180.56;;;15.40;100.00
19831;BME280;10076;52.008;4.708;2023-03-21T13:25:06;101186.63;;;15.42;100.00
19831;BME280;10076;52.008;4.708;2023-03-21T13:27:40;101176.72;;;15.33;100.00
19831;BME280;10076;52.008;4.708;2023-03-21T13:32:48;101173.84;;;15.05;100.00
19831;BME280;10076;52.008;4.708;2023-03-21T13:35:31;101179.22;;;15.25;100.00
19831;BME280;10076;52.008;4.708;2023-03-21T13:38:04;101177.88;;;15.19;100.00
19831;BME280;10076;52.008;4.708;2023-03-21T13:43:03;101180.72;;;15.07;100.00
19831;BME280;10076;52.008;4.708;2023-03-21T13:45:43;101181.34;;;15.00;100.00
19831;BME280;10076;52.008;4.708;2023-03-21T13:50:59;101164.38;;;14.80;100.00
19831;BME280;10076;52.008;4.708;2023-03-21T13:53:32;101173.13;;;14.71;100.00
19831;BME280;10076;52.008;4.708;2023-03-21T14:01:25;101160.81;;;14.70;100.00